createdAt,value
2019-04-14T00:00:08.004Z,0.00
2019-04-14T00:01:08.625Z,0.00
2019-04-14T00:02:07.951Z,0.00
2019-04-14T00:03:08.663Z,0.00
2019-04-14T00:04:07.893Z,0.00
2019-04-14T00:05:08.236Z,0.00
2019-04-14T00:06:09.022Z,0.00
2019-04-14T00:07:08.014Z,0.00
2019-04-14T00:08:08.785Z,0.00
2019-04-14T00:09:07.752Z,0.00
2019-04-14T00:10:07.724Z,0.00
2019-04-14T00:11:08.313Z,0.00
2019-04-14T00:12:09.023Z,0.00
2019-04-14T00:13:08.865Z,0.00
2019-04-14T00:14:07.614Z,0.00
2019-04-14T00:15:19.287Z,0.00
2019-04-14T00:16:07.554Z,0.00
2019-04-14T00:17:08.498Z,0.00
2019-04-14T00:18:07.560Z,0.00
2019-04-14T00:19:08.676Z,0.00
2019-04-14T00:20:07.449Z,0.00
2019-04-14T00:21:08.650Z,0.00
2019-04-14T00:22:07.388Z,0.00
2019-04-14T00:23:08.656Z,0.00
2019-04-14T00:24:07.403Z,0.00
2019-04-14T00:25:08.563Z,0.00
2019-04-14T00:26:07.291Z,0.00
2019-04-14T00:27:08.445Z,0.00
2019-04-14T00:28:07.398Z,0.00
2019-04-14T00:29:07.192Z,0.00
2019-04-14T00:30:07.597Z,0.00
2019-04-14T00:31:07.134Z,0.00
2019-04-14T00:32:07.364Z,0.00
2019-04-14T00:33:08.373Z,0.00
2019-04-14T00:34:07.303Z,0.00
2019-04-14T00:35:08.147Z,0.00
2019-04-14T00:36:06.995Z,0.00
2019-04-14T00:37:07.745Z,0.00
2019-04-14T00:38:06.939Z,0.00
2019-04-14T00:39:07.489Z,0.00
2019-04-14T00:40:06.886Z,0.00
2019-04-14T00:41:07.177Z,0.00
2019-04-14T00:42:08.176Z,0.00
2019-04-14T00:43:07.009Z,0.00
2019-04-14T00:44:07.822Z,0.00
2019-04-14T00:45:06.988Z,0.00
2019-04-14T00:46:07.869Z,0.00
2019-04-14T00:47:07.106Z,0.00
2019-04-14T00:48:11.818Z,0.00
2019-04-14T00:49:07.066Z,0.00
2019-04-14T00:50:07.893Z,0.00
2019-04-14T00:51:06.969Z,0.00
2019-04-14T00:52:07.862Z,0.00
2019-04-14T00:53:07.652Z,0.00
2019-04-14T00:54:06.704Z,0.00
2019-04-14T00:55:07.563Z,0.00
2019-04-14T00:56:06.444Z,0.00
2019-04-14T00:57:07.312Z,0.00
2019-04-14T00:58:06.381Z,0.00
2019-04-14T00:59:07.115Z,0.00
2019-04-14T01:00:06.347Z,0.00
2019-04-14T01:01:06.959Z,0.00
2019-04-14T01:02:06.288Z,0.00
2019-04-14T01:03:06.910Z,0.00
2019-04-14T01:04:06.220Z,0.00
2019-04-14T01:05:06.619Z,0.00
2019-04-14T01:06:07.530Z,0.00
2019-04-14T01:07:06.526Z,0.00
2019-04-14T01:08:07.272Z,0.00
2019-04-14T01:09:06.414Z,0.00
2019-04-14T01:10:06.098Z,0.00
2019-04-14T01:11:07.309Z,0.00
2019-04-14T01:12:06.107Z,0.00
2019-04-14T01:13:09.338Z,0.00
2019-04-14T01:14:05.950Z,0.00
2019-04-14T01:15:07.095Z,0.00
2019-04-14T01:16:13.225Z,0.00
2019-04-14T01:17:06.926Z,0.00
2019-04-14T01:18:05.850Z,0.00
2019-04-14T01:19:06.811Z,0.00
2019-04-14T01:20:05.766Z,0.00
2019-04-14T01:21:06.689Z,0.00
2019-04-14T01:22:05.713Z,0.00
2019-04-14T01:23:06.337Z,0.00
2019-04-14T01:24:05.647Z,0.00
2019-04-14T01:25:06.417Z,0.00
2019-04-14T01:26:05.593Z,0.00
2019-04-14T01:27:06.062Z,0.00
2019-04-14T01:28:06.701Z,0.00
2019-04-14T01:29:05.793Z,0.00
2019-04-14T01:30:06.557Z,0.00
2019-04-14T01:31:05.607Z,0.00
2019-04-14T01:32:06.509Z,0.00
2019-04-14T01:33:05.512Z,0.00
2019-04-14T01:34:06.336Z,0.00
2019-04-14T01:35:05.413Z,0.00
2019-04-14T01:36:06.093Z,0.00
2019-04-14T01:37:05.280Z,0.00
2019-04-14T01:38:05.882Z,0.00
2019-04-14T01:39:05.227Z,0.00
2019-04-14T01:40:05.331Z,0.00
2019-04-14T01:41:06.322Z,0.00
2019-04-14T01:42:05.139Z,0.00
2019-04-14T01:43:05.931Z,0.00
2019-04-14T01:44:05.085Z,0.00
2019-04-14T01:45:05.663Z,0.00
2019-04-14T01:46:11.627Z,0.00
2019-04-14T01:47:05.270Z,0.00
2019-04-14T01:48:05.982Z,0.00
2019-04-14T01:49:05.092Z,0.00
2019-04-14T01:50:05.913Z,0.00
2019-04-14T01:51:04.950Z,0.00
2019-04-14T01:52:05.699Z,0.00
2019-04-14T01:53:05.387Z,0.00
2019-04-14T01:54:05.851Z,0.00
2019-04-14T01:55:04.825Z,0.00
2019-04-14T01:56:05.626Z,0.00
2019-04-14T01:57:04.720Z,0.00
2019-04-14T01:58:05.376Z,0.00
2019-04-14T01:59:04.663Z,0.00
2019-04-14T02:00:05.357Z,0.00
2019-04-14T02:01:04.604Z,0.00
2019-04-14T02:02:05.115Z,0.00
2019-04-14T02:03:04.540Z,0.00
2019-04-14T02:04:04.949Z,0.00
2019-04-14T02:05:04.503Z,0.00
2019-04-14T02:06:04.795Z,0.00
2019-04-14T02:07:04.429Z,0.00
2019-04-14T02:08:04.512Z,0.00
2019-04-14T02:09:05.359Z,0.00
2019-04-14T02:10:04.337Z,0.00
2019-04-14T02:11:05.230Z,0.00
2019-04-14T02:12:04.286Z,0.00
2019-04-14T02:13:04.991Z,0.00
2019-04-14T02:14:04.229Z,0.00
2019-04-14T02:15:11.394Z,0.00
2019-04-14T02:17:00.534Z,0.00
2019-04-14T02:17:57.036Z,0.00
2019-04-14T02:19:50.291Z,0.00
2019-04-14T02:20:51.056Z,0.00
2019-04-14T02:21:49.995Z,0.00
2019-04-14T02:22:50.630Z,0.00
2019-04-14T02:23:49.898Z,0.00
2019-04-14T02:24:50.306Z,0.00
2019-04-14T02:25:49.738Z,0.00
2019-04-14T02:26:50.283Z,0.00
2019-04-14T02:27:49.679Z,0.00
2019-04-14T02:28:50.414Z,0.00
2019-04-14T02:29:49.624Z,0.00
2019-04-14T02:31:00.104Z,0.00
2019-04-14T02:32:17.535Z,0.00
2019-04-14T02:33:23.604Z,0.00
2019-04-14T02:34:17.479Z,0.00
2019-04-14T02:36:27.365Z,0.00
2019-04-14T02:38:23.188Z,0.00
2019-04-14T02:40:18.122Z,0.00
2019-04-14T02:41:18.731Z,0.00
2019-04-14T02:45:24.572Z,0.00
2019-04-14T02:46:14.989Z,0.00
2019-04-14T02:47:38.883Z,0.00
2019-04-14T02:48:31.506Z,0.00
2019-04-14T02:49:11.186Z,0.00
2019-04-14T02:50:10.911Z,0.00
2019-04-14T02:51:19.389Z,0.00
2019-04-14T02:53:18.502Z,0.00
2019-04-14T02:54:32.960Z,0.00
2019-04-14T02:55:08.776Z,0.00
2019-04-14T02:56:21.934Z,0.00
2019-04-14T02:57:20.502Z,0.00
2019-04-14T02:58:20.383Z,0.00
2019-04-14T02:59:11.698Z,0.00
2019-04-14T03:00:16.744Z,0.00
2019-04-14T03:01:24.095Z,0.00
2019-04-14T03:02:22.890Z,0.00
2019-04-14T03:03:16.881Z,0.00
2019-04-14T03:04:14.675Z,0.00
2019-04-14T03:05:09.739Z,0.00
2019-04-14T03:06:20.392Z,0.00
2019-04-14T03:07:19.043Z,0.00
2019-04-14T03:08:17.189Z,0.00
2019-04-14T03:09:24.348Z,0.00
2019-04-14T03:10:20.393Z,0.00
2019-04-14T03:12:19.086Z,0.00
2019-04-14T03:13:21.075Z,0.00
2019-04-14T03:14:19.757Z,0.00
2019-04-14T03:15:20.077Z,0.00
2019-04-14T03:16:21.722Z,0.00
2019-04-14T03:17:24.818Z,0.00
2019-04-14T03:19:16.509Z,0.00
2019-04-14T03:20:20.128Z,0.00
2019-04-14T03:21:19.498Z,0.00
2019-04-14T03:22:25.519Z,0.00
2019-04-14T03:23:18.938Z,0.00
2019-04-14T03:24:13.132Z,0.00
2019-04-14T03:25:03.070Z,0.00
2019-04-14T03:26:15.623Z,0.00
2019-04-14T03:27:13.551Z,0.00
2019-04-14T03:28:06.984Z,0.00
2019-04-14T03:29:19.209Z,0.00
2019-04-14T03:30:39.287Z,0.00
2019-04-14T03:31:47.260Z,0.00
2019-04-14T03:32:26.529Z,0.00
2019-04-14T03:33:43.503Z,0.00
2019-04-14T03:35:35.059Z,0.00
2019-04-14T03:36:44.134Z,0.00
2019-04-14T03:38:18.916Z,0.00
2019-04-14T03:39:33.476Z,0.00
2019-04-14T03:40:09.980Z,0.00
2019-04-14T03:41:17.528Z,0.00
2019-04-14T03:43:18.705Z,0.00
2019-04-14T03:44:37.790Z,0.00
2019-04-14T03:45:20.690Z,0.00
2019-04-14T03:47:13.802Z,0.00
2019-04-14T03:49:22.032Z,0.00
2019-04-14T03:50:13.686Z,0.00
2019-04-14T03:51:18.922Z,0.00
2019-04-14T03:52:13.080Z,0.00
2019-04-14T03:53:15.868Z,0.00
2019-04-14T03:54:23.590Z,0.00
2019-04-14T03:55:01.232Z,0.00
2019-04-14T03:55:54.537Z,0.00
2019-04-14T03:56:47.131Z,0.00
2019-04-14T03:57:47.651Z,4.00
2019-04-14T03:58:47.071Z,4.00
2019-04-14T03:59:47.798Z,0.00
2019-04-14T04:00:47.026Z,4.00
2019-04-14T04:01:47.883Z,4.00
2019-04-14T04:02:46.959Z,4.00
2019-04-14T04:03:47.857Z,8.00
2019-04-14T04:04:46.903Z,8.00
2019-04-14T04:05:47.862Z,8.00
2019-04-14T04:06:46.845Z,8.00
2019-04-14T04:07:47.478Z,12.00
2019-04-14T04:08:46.785Z,12.00
2019-04-14T04:09:47.536Z,20.00
2019-04-14T04:10:46.733Z,20.00
2019-04-14T04:11:47.627Z,24.00
2019-04-14T04:12:46.672Z,32.00
2019-04-14T04:13:47.689Z,36.00
2019-04-14T04:14:46.615Z,44.00
2019-04-14T04:15:47.582Z,48.00
2019-04-14T04:16:46.557Z,56.00
2019-04-14T04:17:47.288Z,64.00
2019-04-14T04:18:56.469Z,76.00
2019-04-14T04:19:46.981Z,88.00
2019-04-14T04:20:47.648Z,100.00
2019-04-14T04:21:46.640Z,112.00
2019-04-14T04:22:47.572Z,128.00
2019-04-14T04:23:46.822Z,144.00
2019-04-14T04:24:47.504Z,164.00
2019-04-14T04:25:46.578Z,180.00
2019-04-14T04:26:47.222Z,200.00
2019-04-14T04:27:46.248Z,224.00
2019-04-14T04:28:47.157Z,248.00
2019-04-14T04:29:46.308Z,272.00
2019-04-14T04:30:47.002Z,300.00
2019-04-14T04:31:46.218Z,332.00
2019-04-14T04:32:46.904Z,364.00
2019-04-14T04:33:46.072Z,396.00
2019-04-14T04:34:46.645Z,432.00
2019-04-14T04:35:46.009Z,472.00
2019-04-14T04:36:46.359Z,512.00
2019-04-14T04:37:45.955Z,560.00
2019-04-14T04:38:46.321Z,612.00
2019-04-14T04:39:45.898Z,668.00
2019-04-14T04:40:46.129Z,724.00
2019-04-14T04:41:45.843Z,780.00
2019-04-14T04:42:45.896Z,840.00
2019-04-14T04:43:45.783Z,900.00
2019-04-14T04:44:46.357Z,956.00
2019-04-14T04:45:45.730Z,1012.00
2019-04-14T04:46:45.993Z,1064.00
2019-04-14T04:47:46.915Z,1124.00
2019-04-14T04:48:57.975Z,1184.00
2019-04-14T04:49:46.773Z,1248.00
2019-04-14T04:50:45.593Z,1304.00
2019-04-14T04:51:46.555Z,1372.00
2019-04-14T04:52:45.532Z,1436.00
2019-04-14T04:53:46.215Z,1508.00
2019-04-14T04:54:45.475Z,1580.00
2019-04-14T04:55:46.074Z,1656.00
2019-04-14T04:56:45.407Z,1748.00
2019-04-14T04:57:45.985Z,1844.00
2019-04-14T04:58:45.649Z,1948.00
2019-04-14T04:59:45.373Z,2052.00
2019-04-14T05:00:47.356Z,2148.00
2019-04-14T05:01:45.270Z,2212.00
2019-04-14T05:02:46.068Z,2260.00
2019-04-14T05:03:45.215Z,2308.00
2019-04-14T05:04:46.029Z,2356.00
2019-04-14T05:05:45.155Z,2412.00
2019-04-14T05:06:45.911Z,2472.00
2019-04-14T05:07:45.115Z,2528.00
2019-04-14T05:08:45.556Z,2568.00
2019-04-14T05:09:45.053Z,2628.00
2019-04-14T05:10:45.692Z,2728.00
2019-04-14T05:11:44.985Z,2836.00
2019-04-14T05:12:45.680Z,2952.00
2019-04-14T05:13:44.927Z,3100.00
2019-04-14T05:14:45.590Z,3268.00
2019-04-14T05:15:44.872Z,3420.00
2019-04-14T05:16:46.048Z,3556.00
2019-04-14T05:17:45.278Z,3660.00
2019-04-14T05:18:44.782Z,3728.00
2019-04-14T05:19:45.493Z,3808.00
2019-04-14T05:20:44.738Z,3916.00
2019-04-14T05:21:45.204Z,4040.00
2019-04-14T05:22:44.668Z,4148.00
2019-04-14T05:23:45.328Z,4292.00
2019-04-14T05:24:44.619Z,4408.00
2019-04-14T05:25:45.228Z,4524.00
2019-04-14T05:26:44.559Z,4508.00
2019-04-14T05:27:45.222Z,4500.00
2019-04-14T05:28:44.505Z,4508.00
2019-04-14T05:29:45.099Z,4580.00
2019-04-14T05:30:45.725Z,4656.00
2019-04-14T05:31:44.732Z,4808.00
2019-04-14T05:32:45.446Z,4932.00
2019-04-14T05:33:44.750Z,4928.00
2019-04-14T05:34:45.405Z,4824.00
2019-04-14T05:35:44.591Z,4952.00
2019-04-14T05:36:45.328Z,5072.00
2019-04-14T05:37:44.440Z,5392.00
2019-04-14T05:38:45.005Z,5804.00
2019-04-14T05:39:44.209Z,6284.00
2019-04-14T05:40:45.053Z,6408.00
2019-04-14T05:41:56.738Z,6488.00
2019-04-14T05:42:45.067Z,6540.00
2019-04-14T05:43:51.415Z,6524.00
2019-04-14T05:44:44.802Z,6600.00
2019-04-14T05:45:44.028Z,6636.00
2019-04-14T05:46:44.648Z,6568.00
2019-04-14T05:47:43.970Z,6800.00
2019-04-14T05:48:44.677Z,7020.00
2019-04-14T05:49:48.257Z,6968.00
2019-04-14T05:50:44.377Z,7296.00
2019-04-14T05:51:43.860Z,7060.00
2019-04-14T05:52:44.714Z,7408.00
2019-04-14T05:53:43.921Z,7400.00
2019-04-14T05:54:44.731Z,8108.00
2019-04-14T05:55:43.854Z,8616.00
2019-04-14T05:56:44.756Z,9276.00
2019-04-14T05:57:43.830Z,9796.00
2019-04-14T05:58:44.634Z,10300.00
2019-04-14T05:59:44.055Z,10872.00
2019-04-14T06:00:43.779Z,11312.00
2019-04-14T06:01:44.308Z,11316.00
2019-04-14T06:02:44.121Z,11600.00
2019-04-14T06:03:43.536Z,11320.00
2019-04-14T06:04:43.967Z,11240.00
2019-04-14T06:05:43.473Z,11812.00
2019-04-14T06:06:43.454Z,11888.00
2019-04-14T06:07:43.418Z,12064.00
2019-04-14T06:08:43.402Z,12140.00
2019-04-14T06:09:43.372Z,12348.00
2019-04-14T06:10:43.344Z,12044.00
2019-04-14T06:11:43.322Z,12144.00
2019-04-14T06:12:43.291Z,12084.00
2019-04-14T06:13:43.268Z,11936.00
2019-04-14T06:14:43.244Z,12052.00
2019-04-14T06:15:43.217Z,12300.00
2019-04-14T06:16:43.190Z,12508.00
2019-04-14T06:17:43.167Z,12800.00
2019-04-14T06:18:43.144Z,13052.00
2019-04-14T06:19:50.293Z,13416.00
2019-04-14T06:21:43.394Z,14368.00
2019-04-14T06:22:35.963Z,14112.00
2019-04-14T06:24:29.862Z,14384.00
2019-04-14T06:25:29.832Z,14256.00
2019-04-14T06:27:22.729Z,14344.00
2019-04-14T06:28:22.676Z,14736.00
2019-04-14T06:30:15.582Z,15900.00
2019-04-14T06:31:15.526Z,16832.00
2019-04-14T06:33:08.406Z,17440.00
2019-04-14T06:34:08.379Z,18176.00
2019-04-14T06:35:08.351Z,18496.00
2019-04-14T06:36:08.326Z,19200.00
2019-04-14T06:37:08.305Z,19264.00
2019-04-14T06:38:08.285Z,18912.00
2019-04-14T06:39:08.258Z,18592.00
2019-04-14T06:40:08.230Z,19168.00
2019-04-14T06:41:08.211Z,19456.00
2019-04-14T06:42:08.189Z,18816.00
2019-04-14T06:43:08.162Z,18976.00
2019-04-14T06:44:08.135Z,19744.00
2019-04-14T06:45:08.114Z,20384.00
2019-04-14T06:46:08.088Z,20000.00
2019-04-14T06:47:08.076Z,19744.00
2019-04-14T06:48:08.042Z,20224.00
2019-04-14T06:49:08.021Z,19808.00
2019-04-14T06:50:07.997Z,19968.00
2019-04-14T06:51:07.975Z,20640.00
2019-04-14T06:52:07.950Z,22048.00
2019-04-14T06:53:07.927Z,23904.00
2019-04-14T06:54:07.904Z,28800.00
2019-04-14T06:55:07.882Z,37376.00
2019-04-14T06:56:07.859Z,42336.00
2019-04-14T06:57:07.841Z,47104.00
2019-04-14T06:58:07.814Z,48064.00
2019-04-14T06:59:07.793Z,46304.00
2019-04-14T07:00:07.770Z,43808.00
2019-04-14T07:01:07.747Z,46560.00
2019-04-14T07:02:08.698Z,49024.00
2019-04-14T07:03:07.703Z,50464.00
2019-04-14T07:04:07.683Z,50048.00
2019-04-14T07:05:07.661Z,49856.00
2019-04-14T07:06:07.639Z,51424.00
2019-04-14T07:07:07.619Z,51264.00
2019-04-14T07:08:07.597Z,51200.00
2019-04-14T07:09:07.577Z,53536.00
2019-04-14T07:10:07.558Z,53696.00
2019-04-14T07:11:07.537Z,54112.00
2019-04-14T07:12:07.602Z,55360.00
2019-04-14T07:13:07.558Z,53536.00
2019-04-14T07:14:07.480Z,52224.00
2019-04-14T07:15:07.458Z,55392.00
2019-04-14T07:16:07.443Z,58272.00
2019-04-14T07:17:07.422Z,55552.00
2019-04-14T07:18:07.403Z,51712.00
2019-04-14T07:19:07.382Z,52352.00
2019-04-14T07:20:07.363Z,53376.00
2019-04-14T07:21:07.342Z,51584.00
2019-04-14T07:22:07.326Z,49472.00
2019-04-14T07:23:07.307Z,53216.00
2019-04-14T07:24:07.288Z,58528.00
2019-04-14T07:25:07.268Z,57568.00
2019-04-14T07:26:07.250Z,53184.00
2019-04-14T07:27:07.240Z,51968.00
2019-04-14T07:28:07.215Z,58592.00
2019-04-14T07:29:07.197Z,64960.00
2019-04-14T07:30:07.202Z,65408.00
2019-04-14T07:31:07.163Z,65952.00
2019-04-14T07:32:07.146Z,68608.00
2019-04-14T07:33:07.128Z,71008.00
2019-04-14T07:34:07.113Z,70624.00
2019-04-14T07:35:07.092Z,67776.00
2019-04-14T07:36:07.077Z,67488.00
2019-04-14T07:37:07.058Z,66272.00
2019-04-14T07:38:07.042Z,61152.00
2019-04-14T07:39:07.026Z,68160.00
2019-04-14T07:40:07.010Z,64000.00
2019-04-14T07:41:06.994Z,64480.00
2019-04-14T07:42:06.976Z,69760.00
2019-04-14T07:43:06.959Z,68832.00
2019-04-14T07:44:06.934Z,61664.00
2019-04-14T07:45:06.923Z,50112.00
2019-04-14T07:46:06.908Z,68512.00
2019-04-14T07:47:06.887Z,62592.00
2019-04-14T07:48:06.878Z,58688.00
2019-04-14T07:49:06.859Z,67968.00
2019-04-14T07:50:14.581Z,63840.00
2019-04-14T07:51:06.823Z,62784.00
2019-04-14T07:52:06.804Z,54144.00
2019-04-14T07:53:06.791Z,63936.00
2019-04-14T07:54:06.772Z,67776.00
2019-04-14T07:55:06.758Z,63008.00
2019-04-14T07:56:06.746Z,65792.00
2019-04-14T07:57:06.724Z,65696.00
2019-04-14T07:58:06.707Z,67392.00
2019-04-14T07:59:06.694Z,66112.00
2019-04-14T08:00:06.684Z,63104.00
2019-04-14T08:01:06.661Z,59392.00
2019-04-14T08:02:06.641Z,59200.00
2019-04-14T08:03:06.625Z,60768.00
2019-04-14T08:04:06.603Z,60000.00
2019-04-14T08:05:06.591Z,61792.00
2019-04-14T08:06:06.569Z,56192.00
2019-04-14T08:07:06.560Z,59072.00
2019-04-14T08:08:06.540Z,63456.00
2019-04-14T08:09:06.523Z,69088.00
2019-04-14T08:10:06.508Z,77216.00
2019-04-14T08:11:06.490Z,79968.00
2019-04-14T08:12:06.474Z,79264.00
2019-04-14T08:13:06.458Z,81632.00
2019-04-14T08:14:06.438Z,79488.00
2019-04-14T08:15:06.424Z,76800.00
2019-04-14T08:16:06.408Z,72672.00
2019-04-14T08:17:06.390Z,70400.00
2019-04-14T08:18:06.373Z,74272.00
2019-04-14T08:19:06.360Z,69440.00
2019-04-14T08:20:06.347Z,72640.00
2019-04-14T08:21:06.323Z,75616.00
2019-04-14T08:22:06.310Z,79200.00
2019-04-14T08:23:06.294Z,83808.00
2019-04-14T08:24:06.278Z,85632.00
2019-04-14T08:25:06.261Z,85792.00
2019-04-14T08:26:06.246Z,86496.00
2019-04-14T08:27:06.224Z,87584.00
2019-04-14T08:28:06.214Z,89600.00
2019-04-14T08:29:06.198Z,89664.00
2019-04-14T08:30:06.183Z,90496.00
2019-04-14T08:31:06.167Z,90944.00
2019-04-14T08:32:06.156Z,89184.00
2019-04-14T08:33:06.131Z,90592.00
2019-04-14T08:34:06.119Z,83904.00
2019-04-14T08:35:06.110Z,77472.00
2019-04-14T08:36:06.095Z,68384.00
2019-04-14T08:37:06.083Z,85216.00
2019-04-14T08:38:06.064Z,83232.00
2019-04-14T08:39:06.051Z,85152.00
2019-04-14T08:40:06.043Z,83072.00
2019-04-14T08:41:06.025Z,82432.00
2019-04-14T08:42:06.009Z,45920.00
2019-04-14T08:43:05.991Z,83200.00
2019-04-14T08:44:05.986Z,91808.00
2019-04-14T08:45:05.966Z,91808.00
2019-04-14T08:46:05.964Z,90080.00
2019-04-14T08:47:05.935Z,91232.00
2019-04-14T08:48:05.922Z,91328.00
2019-04-14T08:49:05.913Z,91328.00
2019-04-14T08:50:05.894Z,98720.00
2019-04-14T08:51:05.882Z,91200.00
2019-04-14T08:52:05.867Z,92928.00
2019-04-14T08:53:05.851Z,102368.00
2019-04-14T08:54:05.838Z,107232.00
2019-04-14T08:55:05.828Z,41152.00
2019-04-14T08:56:05.811Z,83072.00
2019-04-14T08:57:05.797Z,103904.00
2019-04-14T08:58:05.786Z,104128.00
2019-04-14T08:59:05.769Z,109568.00
2019-04-14T09:00:05.757Z,108416.00
2019-04-14T09:01:05.743Z,110208.00
2019-04-14T09:02:05.732Z,110496.00
2019-04-14T09:03:05.710Z,110144.00
2019-04-14T09:04:05.703Z,107872.00
2019-04-14T09:05:05.691Z,107616.00
2019-04-14T09:06:05.675Z,107072.00
2019-04-14T09:07:05.666Z,110176.00
2019-04-14T09:08:05.648Z,105728.00
2019-04-14T09:09:07.348Z,97280.00
2019-04-14T09:10:05.624Z,99904.00
2019-04-14T09:11:05.617Z,47776.00
2019-04-14T09:12:15.363Z,100864.00
2019-04-14T09:13:05.587Z,90368.00
2019-04-14T09:14:05.575Z,103648.00
2019-04-14T09:15:05.562Z,102112.00
2019-04-14T09:16:05.546Z,61920.00
2019-04-14T09:17:05.535Z,110368.00
2019-04-14T09:18:05.519Z,49056.00
2019-04-14T09:19:07.756Z,111072.00
2019-04-14T09:20:05.496Z,109056.00
2019-04-14T09:21:05.484Z,59712.00
2019-04-14T09:22:05.472Z,106944.00
2019-04-14T09:23:05.461Z,88256.00
2019-04-14T09:24:05.451Z,67232.00
2019-04-14T09:25:05.435Z,47520.00
2019-04-14T09:26:05.422Z,89344.00
2019-04-14T09:27:05.451Z,104192.00
2019-04-14T09:28:05.393Z,58400.00
2019-04-14T09:29:05.381Z,99360.00
2019-04-14T09:30:05.374Z,96480.00
2019-04-14T09:31:05.353Z,48288.00
2019-04-14T09:32:05.339Z,60512.00
2019-04-14T09:33:05.324Z,60256.00
2019-04-14T09:34:05.313Z,89792.00
2019-04-14T09:35:05.300Z,57536.00
2019-04-14T09:36:05.284Z,73760.00
2019-04-14T09:37:05.272Z,40160.00
2019-04-14T09:38:05.259Z,36192.00
2019-04-14T09:39:05.242Z,45056.00
2019-04-14T09:40:05.232Z,63936.00
2019-04-14T09:41:05.215Z,64928.00
2019-04-14T09:42:05.258Z,64320.00
2019-04-14T09:43:05.188Z,41952.00
2019-04-14T09:44:05.167Z,37152.00
2019-04-14T09:45:05.150Z,39296.00
2019-04-14T09:46:05.137Z,67680.00
2019-04-14T09:47:05.117Z,54464.00
2019-04-14T09:48:05.106Z,43648.00
2019-04-14T09:49:05.088Z,49632.00
2019-04-14T09:50:05.076Z,39296.00
2019-04-14T09:51:05.405Z,47616.00
2019-04-14T09:52:05.039Z,36544.00
2019-04-14T09:53:05.019Z,31328.00
2019-04-14T09:54:05.008Z,30880.00
2019-04-14T09:55:04.992Z,37632.00
2019-04-14T09:56:04.974Z,37920.00
2019-04-14T09:57:04.956Z,40160.00
2019-04-14T09:58:04.946Z,44928.00
2019-04-14T09:59:04.920Z,42144.00
2019-04-14T10:00:04.903Z,36704.00
2019-04-14T10:01:04.894Z,39264.00
2019-04-14T10:02:04.892Z,54272.00
2019-04-14T10:03:04.852Z,44288.00
2019-04-14T10:04:04.849Z,37888.00
2019-04-14T10:05:04.816Z,47328.00
2019-04-14T10:06:04.805Z,38944.00
2019-04-14T10:07:04.788Z,38496.00
2019-04-14T10:08:04.759Z,44288.00
2019-04-14T10:09:04.742Z,52768.00
2019-04-14T10:10:04.731Z,52288.00
2019-04-14T10:11:04.713Z,52480.00
2019-04-14T10:12:11.893Z,47040.00
2019-04-14T10:14:04.978Z,42592.00
2019-04-14T10:15:04.732Z,43328.00
2019-04-14T10:16:50.448Z,42368.00
2019-04-14T10:17:57.608Z,41216.00
2019-04-14T10:19:43.343Z,35840.00
2019-04-14T10:20:43.297Z,35456.00
2019-04-14T10:21:43.279Z,42912.00
2019-04-14T10:22:43.268Z,59936.00
2019-04-14T10:23:43.245Z,72768.00
2019-04-14T10:24:43.224Z,53376.00
2019-04-14T10:25:43.222Z,46944.00
2019-04-14T10:26:43.187Z,45632.00
2019-04-14T10:27:43.172Z,47168.00
2019-04-14T10:28:43.148Z,54688.00
2019-04-14T10:29:43.133Z,34816.00
2019-04-14T10:30:43.110Z,34016.00
2019-04-14T10:31:43.096Z,34432.00
2019-04-14T10:32:43.077Z,34400.00
2019-04-14T10:33:43.057Z,31040.00
2019-04-14T10:34:43.041Z,25888.00
2019-04-14T10:35:43.024Z,23712.00
2019-04-14T10:36:43.005Z,23424.00
2019-04-14T10:37:42.983Z,21408.00
2019-04-14T10:38:42.968Z,20064.00
2019-04-14T10:39:42.948Z,20896.00
2019-04-14T10:40:42.928Z,21824.00
2019-04-14T10:41:42.911Z,22336.00
2019-04-14T10:42:42.890Z,21248.00
2019-04-14T10:43:42.871Z,19616.00
2019-04-14T10:44:42.854Z,19168.00
2019-04-14T10:45:42.831Z,18464.00
2019-04-14T10:46:42.814Z,16408.00
2019-04-14T10:47:42.794Z,15964.00
2019-04-14T10:48:42.774Z,15484.00
2019-04-14T10:49:42.757Z,15236.00
2019-04-14T10:50:42.734Z,15692.00
2019-04-14T10:51:42.716Z,15620.00
2019-04-14T10:52:42.695Z,15408.00
2019-04-14T10:53:42.674Z,14604.00
2019-04-14T10:54:42.650Z,14268.00
2019-04-14T10:55:42.635Z,14328.00
2019-04-14T10:56:42.609Z,14952.00
2019-04-14T10:57:42.590Z,14832.00
2019-04-14T10:58:42.572Z,14432.00
2019-04-14T10:59:42.554Z,12172.00
2019-04-14T11:00:42.528Z,10812.00
2019-04-14T11:01:42.513Z,11468.00
2019-04-14T11:02:42.489Z,11960.00
2019-04-14T11:03:42.472Z,11260.00
2019-04-14T11:04:42.442Z,10184.00
2019-04-14T11:05:42.502Z,9676.00
2019-04-14T11:06:42.482Z,9832.00
2019-04-14T11:07:42.454Z,10100.00
2019-04-14T11:08:42.430Z,11140.00
2019-04-14T11:09:42.414Z,13468.00
2019-04-14T11:10:42.315Z,15772.00
2019-04-14T11:11:42.295Z,16832.00
2019-04-14T11:12:42.351Z,16928.00
2019-04-14T11:13:42.319Z,15836.00
2019-04-14T11:14:42.306Z,14932.00
2019-04-14T11:15:42.278Z,14468.00
2019-04-14T11:16:42.257Z,14676.00
2019-04-14T11:17:42.232Z,14984.00
2019-04-14T11:18:42.215Z,15220.00
2019-04-14T11:19:42.119Z,14920.00
2019-04-14T11:20:42.100Z,14416.00
2019-04-14T11:21:43.114Z,13568.00
2019-04-14T11:22:42.054Z,12828.00
2019-04-14T11:23:42.028Z,12500.00
2019-04-14T11:24:42.001Z,12292.00
2019-04-14T11:25:41.984Z,12800.00
2019-04-14T11:26:41.960Z,13804.00
2019-04-14T11:27:41.947Z,14032.00
2019-04-14T11:28:41.917Z,13776.00
2019-04-14T11:29:41.895Z,13280.00
2019-04-14T11:30:41.872Z,13208.00
2019-04-14T11:31:41.849Z,13528.00
2019-04-14T11:32:41.828Z,14620.00
2019-04-14T11:33:41.804Z,15484.00
2019-04-14T11:34:41.782Z,15168.00
2019-04-14T11:35:41.758Z,14596.00
2019-04-14T11:36:41.754Z,14836.00
2019-04-14T11:37:41.721Z,15592.00
2019-04-14T11:38:41.702Z,16288.00
2019-04-14T11:39:41.664Z,16312.00
2019-04-14T11:40:41.648Z,16144.00
2019-04-14T11:41:41.620Z,16832.00
2019-04-14T11:42:51.795Z,18400.00
2019-04-14T11:43:41.580Z,18816.00
2019-04-14T11:44:41.569Z,19968.00
2019-04-14T11:45:41.531Z,23584.00
2019-04-14T11:46:41.509Z,25440.00
2019-04-14T11:47:41.484Z,23968.00
2019-04-14T11:48:41.461Z,19680.00
2019-04-14T11:49:41.459Z,17952.00
2019-04-14T11:50:41.417Z,17216.00
2019-04-14T11:51:41.392Z,15056.00
2019-04-14T11:52:41.373Z,14064.00
2019-04-14T11:53:41.358Z,13444.00
2019-04-14T11:54:41.324Z,13464.00
2019-04-14T11:55:41.304Z,14020.00
2019-04-14T11:56:41.283Z,14868.00
2019-04-14T11:57:41.259Z,14864.00
2019-04-14T11:58:41.242Z,13928.00
2019-04-14T11:59:41.209Z,12712.00
2019-04-14T12:00:41.185Z,11456.00
2019-04-14T12:01:41.162Z,11564.00
2019-04-14T12:02:41.141Z,12788.00
2019-04-14T12:03:41.119Z,14256.00
2019-04-14T12:04:41.104Z,16000.00
2019-04-14T12:05:41.070Z,16280.00
2019-04-14T12:06:41.049Z,14472.00
2019-04-14T12:07:41.028Z,13284.00
2019-04-14T12:08:40.999Z,12452.00
2019-04-14T12:09:40.979Z,11564.00
2019-04-14T12:10:40.955Z,10844.00
2019-04-14T12:11:40.926Z,10600.00
2019-04-14T12:12:40.908Z,10932.00
2019-04-14T12:13:40.884Z,10212.00
2019-04-14T12:14:40.865Z,9800.00
2019-04-14T12:15:40.838Z,9388.00
2019-04-14T12:16:40.812Z,8856.00
2019-04-14T12:17:40.782Z,8772.00
2019-04-14T12:18:40.764Z,9100.00
2019-04-14T12:19:40.742Z,9464.00
2019-04-14T12:20:40.718Z,10008.00
2019-04-14T12:21:40.699Z,10732.00
2019-04-14T12:22:40.674Z,12076.00
2019-04-14T12:23:40.645Z,13668.00
2019-04-14T12:24:40.622Z,15396.00
2019-04-14T12:25:40.601Z,14800.00
2019-04-14T12:26:40.569Z,12868.00
2019-04-14T12:27:40.550Z,11932.00
2019-04-14T12:28:40.551Z,13120.00
2019-04-14T12:29:41.218Z,12852.00
2019-04-14T12:30:40.477Z,12056.00
2019-04-14T12:31:40.450Z,12824.00
2019-04-14T12:32:40.430Z,13896.00
2019-04-14T12:33:40.409Z,13304.00
2019-04-14T12:34:40.377Z,11492.00
2019-04-14T12:35:40.361Z,11192.00
2019-04-14T12:36:40.333Z,13480.00
2019-04-14T12:37:40.312Z,14476.00
2019-04-14T12:38:40.286Z,15880.00